ETEB

Ansbach Army Heliport

Germany
METAR ETEB 162356Z AUTO 26008KT 9999 -SN OVC008 00/M01 A3000 RMK AO2 UPB20E24SNB24 SLP197 P0000 60000 T00041008 10007 20003 52010 $
Observed Flight Rules
Dec-16 @ 23:56 UTC (26 minutes ago) Instrument Flight Rules
Wind Visibility Clouds Conditions
260° at 8 knots 10,000+ meters
  • Overcast at 800' AGL
  • Light Snow
Temperatures Readings Precipitation
Current 0°C / 32°F
Dewpoint -1°C / 30°F
Humidity 93%
Altimeter 30" Hg
Pressure 1019.7 hPa
Elevation 467
Current Rain 0.005
METAR ETEB 162356Z AUTO 26008KT 9999 -SN OVC008 00/M01 A3000 RMK AO2 UPB20E24SNB24 SLP197 P0000 60000 T00041008 10007 20003 52010 $
Observed Flight Rules
Dec-16 @ 23:56 UTC
(26 minutes ago)
IFR
Wind Visibility
260° at 8 knots 10,000+ meters
Clouds
  • Overcast at 800' AGL
Conditions
  • Light Snow
Temperature Dewpoint
0°C / 32°F -1°C / 30°F
Humidity Altimeter Pressure
93% 30" Hg 1019.7 hPa
Current Rain
0.005